createdAt,value
2024-01-15T00:00:03.093Z,0.00
2024-01-15T00:01:03.198Z,0.00
2024-01-15T00:02:03.047Z,0.00
2024-01-15T00:03:03.201Z,0.00
2024-01-15T00:04:03.165Z,0.00
2024-01-15T00:05:03.068Z,0.00
2024-01-15T00:06:03.306Z,0.00
2024-01-15T00:07:03.248Z,0.00
2024-01-15T00:08:03.104Z,0.00
2024-01-15T00:09:03.158Z,0.00
2024-01-15T00:10:03.154Z,0.00
2024-01-15T00:11:03.127Z,0.00
2024-01-15T00:12:03.176Z,0.00
2024-01-15T00:13:03.217Z,0.00
2024-01-15T00:14:03.169Z,0.00
2024-01-15T00:15:03.348Z,0.00
2024-01-15T00:16:03.258Z,0.00
2024-01-15T00:17:03.217Z,0.00
2024-01-15T00:18:03.294Z,0.00
2024-01-15T00:19:03.319Z,0.00
2024-01-15T00:20:03.321Z,0.00
2024-01-15T00:21:03.245Z,0.00
2024-01-15T00:22:03.233Z,0.00
2024-01-15T00:23:03.246Z,0.00
2024-01-15T00:24:03.383Z,0.00
2024-01-15T00:25:03.279Z,0.00
2024-01-15T00:26:03.297Z,0.00
2024-01-15T00:27:03.313Z,0.00
2024-01-15T00:28:03.307Z,0.00
2024-01-15T00:29:03.294Z,0.00
2024-01-15T00:30:03.369Z,0.00
2024-01-15T00:31:03.388Z,0.00
2024-01-15T00:32:03.429Z,0.00
2024-01-15T00:33:03.510Z,0.00
2024-01-15T00:34:03.482Z,0.00
2024-01-15T00:35:03.366Z,0.00
2024-01-15T00:36:03.430Z,0.00
2024-01-15T00:37:03.422Z,0.00
2024-01-15T00:38:03.381Z,0.00
2024-01-15T00:39:03.429Z,0.00
2024-01-15T00:40:03.426Z,0.00
2024-01-15T00:41:03.413Z,0.00
2024-01-15T00:42:03.467Z,0.00
2024-01-15T00:43:03.468Z,0.00
2024-01-15T00:44:03.461Z,0.00
2024-01-15T00:45:03.518Z,0.00
2024-01-15T00:46:03.473Z,0.00
2024-01-15T00:47:03.485Z,0.00
2024-01-15T00:48:03.802Z,0.00
2024-01-15T00:49:03.664Z,0.00
2024-01-15T00:50:03.509Z,0.00
2024-01-15T00:51:03.582Z,0.00
2024-01-15T00:52:03.528Z,0.00
2024-01-15T00:53:03.526Z,0.00
2024-01-15T00:54:03.565Z,0.00
2024-01-15T00:55:03.649Z,0.00
2024-01-15T00:56:03.569Z,0.00
2024-01-15T00:57:03.677Z,0.00
2024-01-15T00:58:03.645Z,0.00
2024-01-15T00:59:03.677Z,0.00
2024-01-15T01:00:05.777Z,0.00
2024-01-15T01:01:03.690Z,0.00
2024-01-15T01:02:03.748Z,0.00
2024-01-15T01:03:03.763Z,0.00
2024-01-15T01:04:03.755Z,0.00
2024-01-15T01:05:03.693Z,0.00
2024-01-15T01:06:03.715Z,0.00
2024-01-15T01:07:03.670Z,0.00
2024-01-15T01:08:03.691Z,0.00
2024-01-15T01:09:03.739Z,0.00
2024-01-15T01:10:03.713Z,0.00
2024-01-15T01:11:03.701Z,0.00
2024-01-15T01:12:03.747Z,0.00
2024-01-15T01:13:03.735Z,0.00
2024-01-15T01:14:03.726Z,0.00
2024-01-15T01:15:03.881Z,0.00
2024-01-15T01:16:03.789Z,0.00
2024-01-15T01:17:03.758Z,0.00
2024-01-15T01:18:04.086Z,0.00
2024-01-15T01:19:04.028Z,0.00
2024-01-15T01:20:03.959Z,0.00
2024-01-15T01:21:03.918Z,0.00
2024-01-15T01:22:03.815Z,0.00
2024-01-15T01:23:03.824Z,0.00
2024-01-15T01:24:03.983Z,0.00
2024-01-15T01:25:03.871Z,0.00
2024-01-15T01:26:03.847Z,0.00
2024-01-15T01:27:03.901Z,0.00
2024-01-15T01:28:03.855Z,0.00
2024-01-15T01:29:03.895Z,0.00
2024-01-15T01:30:04.035Z,0.00
2024-01-15T01:31:04.095Z,0.00
2024-01-15T01:32:03.923Z,0.00
2024-01-15T01:33:04.026Z,0.00
2024-01-15T01:34:04.015Z,0.00
2024-01-15T01:35:03.943Z,0.00
2024-01-15T01:36:03.964Z,0.00
2024-01-15T01:37:03.969Z,0.00
2024-01-15T01:38:03.952Z,0.00
2024-01-15T01:39:04.027Z,0.00
2024-01-15T01:40:03.965Z,0.00
2024-01-15T01:41:03.979Z,0.00
2024-01-15T01:42:04.045Z,0.00
2024-01-15T01:43:04.001Z,0.00
2024-01-15T01:44:04.030Z,0.00
2024-01-15T01:45:04.136Z,0.00
2024-01-15T01:46:04.059Z,0.00
2024-01-15T01:47:04.107Z,0.00
2024-01-15T01:48:04.211Z,0.00
2024-01-15T01:49:04.127Z,0.00
2024-01-15T01:50:04.087Z,0.00
2024-01-15T01:51:04.098Z,0.00
2024-01-15T01:52:04.079Z,0.00
2024-01-15T01:53:04.098Z,0.00
2024-01-15T01:54:04.291Z,0.00
2024-01-15T01:55:04.108Z,0.00
2024-01-15T01:56:04.123Z,0.00
2024-01-15T01:57:04.277Z,0.00
2024-01-15T01:58:04.170Z,0.00
2024-01-15T01:59:04.150Z,0.00
2024-01-15T02:00:04.221Z,0.00
2024-01-15T02:01:04.210Z,0.00
2024-01-15T02:02:04.182Z,0.00
2024-01-15T02:03:04.274Z,0.00
2024-01-15T02:04:04.347Z,0.00
2024-01-15T02:05:04.246Z,0.00
2024-01-15T02:06:04.356Z,0.00
2024-01-15T02:07:04.289Z,0.00
2024-01-15T02:08:04.238Z,0.00
2024-01-15T02:09:04.304Z,0.00
2024-01-15T02:10:04.255Z,0.00
2024-01-15T02:11:04.255Z,0.00
2024-01-15T02:12:04.395Z,0.00
2024-01-15T02:13:04.285Z,0.00
2024-01-15T02:14:04.291Z,0.00
2024-01-15T02:15:04.389Z,0.00
2024-01-15T02:16:04.394Z,0.00
2024-01-15T02:17:04.337Z,0.00
2024-01-15T02:18:04.550Z,0.00
2024-01-15T02:19:04.395Z,0.00
2024-01-15T02:20:04.438Z,0.00
2024-01-15T02:21:04.429Z,0.00
2024-01-15T02:22:04.370Z,0.00
2024-01-15T02:23:04.374Z,0.00
2024-01-15T02:24:04.445Z,0.00
2024-01-15T02:25:04.414Z,0.00
2024-01-15T02:26:04.406Z,0.00
2024-01-15T02:27:04.572Z,0.00
2024-01-15T02:28:04.416Z,0.00
2024-01-15T02:29:04.475Z,0.00
2024-01-15T02:30:04.523Z,0.00
2024-01-15T02:31:04.585Z,0.00
2024-01-15T02:32:04.484Z,0.00
2024-01-15T02:33:04.533Z,0.00
2024-01-15T02:34:04.659Z,0.00
2024-01-15T02:35:04.495Z,0.00
2024-01-15T02:36:04.549Z,0.00
2024-01-15T02:37:04.544Z,0.00
2024-01-15T02:38:04.546Z,0.00
2024-01-15T02:39:04.633Z,0.00
2024-01-15T02:40:04.559Z,0.00
2024-01-15T02:41:04.538Z,0.00
2024-01-15T02:42:04.762Z,0.00
2024-01-15T02:43:04.561Z,0.00
2024-01-15T02:44:04.574Z,0.00
2024-01-15T02:45:04.744Z,0.00
2024-01-15T02:46:04.606Z,0.00
2024-01-15T02:47:04.628Z,0.00
2024-01-15T02:48:04.688Z,0.00
2024-01-15T02:49:04.725Z,0.00
2024-01-15T02:50:04.717Z,0.00
2024-01-15T02:51:04.711Z,0.00
2024-01-15T02:52:04.676Z,0.00
2024-01-15T02:53:04.653Z,0.00
2024-01-15T02:54:04.743Z,0.00
2024-01-15T02:55:04.672Z,0.00
2024-01-15T02:56:04.698Z,0.00
2024-01-15T02:57:04.860Z,0.00
2024-01-15T02:58:04.711Z,0.00
2024-01-15T02:59:04.708Z,0.00
2024-01-15T03:00:04.889Z,0.00
2024-01-15T03:01:05.005Z,0.00
2024-01-15T03:02:04.811Z,0.00
2024-01-15T03:03:04.882Z,0.00
2024-01-15T03:04:04.987Z,0.00
2024-01-15T03:05:04.795Z,0.00
2024-01-15T03:06:04.865Z,0.00
2024-01-15T03:07:04.795Z,0.00
2024-01-15T03:08:04.820Z,0.00
2024-01-15T03:09:04.983Z,0.00
2024-01-15T03:10:04.810Z,0.00
2024-01-15T03:11:04.835Z,0.00
2024-01-15T03:12:04.928Z,0.00
2024-01-15T03:13:04.879Z,0.00
2024-01-15T03:14:04.874Z,0.00
2024-01-15T03:15:04.978Z,0.00
2024-01-15T03:16:04.942Z,0.00
2024-01-15T03:17:04.890Z,0.00
2024-01-15T03:18:05.102Z,0.00
2024-01-15T03:19:04.969Z,0.00
2024-01-15T03:20:05.043Z,0.00
2024-01-15T03:21:04.962Z,0.00
2024-01-15T03:22:04.928Z,0.00
2024-01-15T03:23:04.976Z,0.00
2024-01-15T03:24:05.052Z,0.00
2024-01-15T03:25:04.962Z,0.00
2024-01-15T03:26:04.963Z,0.00
2024-01-15T03:27:05.019Z,0.00
2024-01-15T03:28:04.981Z,0.00
2024-01-15T03:29:04.990Z,0.00
2024-01-15T03:30:05.140Z,0.00
2024-01-15T03:31:05.161Z,0.00
2024-01-15T03:32:05.030Z,0.00
2024-01-15T03:33:05.048Z,0.00
2024-01-15T03:34:05.102Z,0.00
2024-01-15T03:35:05.136Z,0.00
2024-01-15T03:36:05.154Z,0.00
2024-01-15T03:37:05.127Z,0.00
2024-01-15T03:38:05.070Z,0.00
2024-01-15T03:39:05.178Z,0.00
2024-01-15T03:40:05.252Z,0.00
2024-01-15T03:41:05.147Z,0.00
2024-01-15T03:42:05.184Z,0.00
2024-01-15T03:43:05.164Z,0.00
2024-01-15T03:44:05.133Z,0.00
2024-01-15T03:45:05.279Z,0.00
2024-01-15T03:46:05.162Z,0.00
2024-01-15T03:47:05.186Z,0.00
2024-01-15T03:48:05.277Z,0.00
2024-01-15T03:49:05.359Z,0.00
2024-01-15T03:50:05.189Z,0.00
2024-01-15T03:51:05.308Z,0.00
2024-01-15T03:52:05.240Z,0.00
2024-01-15T03:53:05.228Z,0.00
2024-01-15T03:54:05.306Z,0.00
2024-01-15T03:55:05.280Z,0.00
2024-01-15T03:56:05.239Z,0.00
2024-01-15T03:57:05.261Z,0.00
2024-01-15T03:58:05.261Z,0.00
2024-01-15T03:59:05.275Z,0.00
2024-01-15T04:00:05.419Z,0.00
2024-01-15T04:01:05.373Z,0.00
2024-01-15T04:02:05.297Z,0.00
2024-01-15T04:03:05.380Z,0.00
2024-01-15T04:04:05.518Z,0.00
2024-01-15T04:05:05.349Z,0.00
2024-01-15T04:06:05.451Z,0.00
2024-01-15T04:07:05.400Z,0.00
2024-01-15T04:08:05.364Z,0.00
2024-01-15T04:09:05.476Z,0.00
2024-01-15T04:10:05.374Z,0.00
2024-01-15T04:11:05.385Z,0.00
2024-01-15T04:12:05.393Z,0.00
2024-01-15T04:13:05.399Z,0.00
2024-01-15T04:14:05.447Z,0.00
2024-01-15T04:15:05.448Z,0.00
2024-01-15T04:16:05.470Z,0.00
2024-01-15T04:17:05.441Z,0.00
2024-01-15T04:18:05.519Z,0.00
2024-01-15T04:19:05.585Z,0.00
2024-01-15T04:20:05.472Z,0.00
2024-01-15T04:21:05.495Z,0.00
2024-01-15T04:22:05.509Z,0.00
2024-01-15T04:23:05.538Z,0.00
2024-01-15T04:24:05.518Z,0.00
2024-01-15T04:25:05.523Z,0.00
2024-01-15T04:26:05.555Z,0.00
2024-01-15T04:27:05.568Z,0.00
2024-01-15T04:28:05.541Z,0.00
2024-01-15T04:29:05.556Z,0.00
2024-01-15T04:30:05.610Z,0.00
2024-01-15T04:31:05.757Z,0.00
2024-01-15T04:32:05.606Z,0.00
2024-01-15T04:33:05.744Z,0.00
2024-01-15T04:34:05.660Z,0.00
2024-01-15T04:35:05.623Z,0.00
2024-01-15T04:36:05.671Z,0.00
2024-01-15T04:37:05.635Z,0.00
2024-01-15T04:38:05.645Z,0.00
2024-01-15T04:39:05.719Z,0.00
2024-01-15T04:40:05.675Z,0.00
2024-01-15T04:41:05.722Z,0.00
2024-01-15T04:42:05.689Z,0.00
2024-01-15T04:43:05.681Z,0.00
2024-01-15T04:44:05.714Z,0.00
2024-01-15T04:45:05.840Z,0.00
2024-01-15T04:46:05.712Z,0.00
2024-01-15T04:47:05.747Z,0.00
2024-01-15T04:48:05.779Z,0.00
2024-01-15T04:49:05.893Z,0.00
2024-01-15T04:50:05.814Z,0.00
2024-01-15T04:51:05.780Z,0.00
2024-01-15T04:52:05.775Z,0.00
2024-01-15T04:53:05.781Z,0.00
2024-01-15T04:54:05.818Z,0.00
2024-01-15T04:55:05.801Z,0.00
2024-01-15T04:56:05.872Z,0.00
2024-01-15T04:57:05.874Z,0.00
2024-01-15T04:58:05.849Z,0.00
2024-01-15T04:59:05.869Z,0.00
2024-01-15T05:00:05.866Z,0.00
2024-01-15T05:01:05.940Z,0.00
2024-01-15T05:02:05.869Z,0.00
2024-01-15T05:03:05.894Z,0.00
2024-01-15T05:04:06.010Z,0.00
2024-01-15T05:05:05.911Z,0.00
2024-01-15T05:06:06.063Z,0.00
2024-01-15T05:07:05.986Z,0.00
2024-01-15T05:08:05.973Z,0.00
2024-01-15T05:09:05.946Z,0.00
2024-01-15T05:10:06.021Z,0.00
2024-01-15T05:11:05.969Z,0.00
2024-01-15T05:12:05.985Z,0.00
2024-01-15T05:13:05.986Z,0.00
2024-01-15T05:14:06.009Z,0.00
2024-01-15T05:15:06.086Z,0.00
2024-01-15T05:16:06.075Z,0.00
2024-01-15T05:17:09.629Z,0.00
2024-01-15T05:18:06.139Z,0.00
2024-01-15T05:19:06.089Z,0.00
2024-01-15T05:20:06.279Z,0.00
2024-01-15T05:21:06.050Z,0.00
2024-01-15T05:22:06.063Z,0.00
2024-01-15T05:23:06.093Z,0.00
2024-01-15T05:24:06.127Z,0.00
2024-01-15T05:25:06.119Z,0.00
2024-01-15T05:26:06.094Z,0.00
2024-01-15T05:27:06.107Z,0.00
2024-01-15T05:28:06.122Z,0.00
2024-01-15T05:29:06.190Z,0.00
2024-01-15T05:30:06.206Z,0.00
2024-01-15T05:31:06.349Z,0.00
2024-01-15T05:32:06.224Z,0.00
2024-01-15T05:33:06.278Z,0.00
2024-01-15T05:34:06.268Z,0.00
2024-01-15T05:35:06.192Z,0.00
2024-01-15T05:36:06.227Z,0.00
2024-01-15T05:37:06.195Z,0.00
2024-01-15T05:38:06.209Z,0.00
2024-01-15T05:39:06.222Z,0.00
2024-01-15T05:40:06.313Z,0.00
2024-01-15T05:41:06.249Z,0.00
2024-01-15T05:42:06.252Z,0.00
2024-01-15T05:43:06.259Z,0.00
2024-01-15T05:44:06.273Z,0.00
2024-01-15T05:45:06.308Z,0.00
2024-01-15T05:46:06.304Z,0.00
2024-01-15T05:47:06.319Z,0.00
2024-01-15T05:48:06.476Z,0.00
2024-01-15T05:49:06.479Z,0.00
2024-01-15T05:50:06.427Z,0.00
2024-01-15T05:51:06.374Z,0.00
2024-01-15T05:52:06.368Z,0.00
2024-01-15T05:53:06.353Z,0.00
2024-01-15T05:54:06.358Z,0.00
2024-01-15T05:55:06.375Z,0.00
2024-01-15T05:56:06.377Z,0.00
2024-01-15T05:57:06.392Z,0.00
2024-01-15T05:58:06.428Z,0.00
2024-01-15T05:59:06.405Z,0.00
2024-01-15T06:00:06.501Z,0.00
2024-01-15T06:01:06.508Z,0.00
2024-01-15T06:02:06.429Z,0.00
2024-01-15T06:03:06.472Z,0.00
2024-01-15T06:04:06.547Z,0.00
2024-01-15T06:05:06.520Z,0.00
2024-01-15T06:06:06.547Z,0.00
2024-01-15T06:07:06.556Z,0.00
2024-01-15T06:08:06.537Z,0.00
2024-01-15T06:09:06.583Z,0.00
2024-01-15T06:10:06.526Z,0.00
2024-01-15T06:11:06.523Z,0.00
2024-01-15T06:12:06.526Z,0.00
2024-01-15T06:13:06.608Z,0.00
2024-01-15T06:14:06.573Z,0.00
2024-01-15T06:15:06.556Z,0.00
2024-01-15T06:16:07.613Z,0.00
2024-01-15T06:17:06.572Z,0.00
2024-01-15T06:18:06.672Z,0.00
2024-01-15T06:19:06.761Z,0.00
2024-01-15T06:20:06.763Z,0.00
2024-01-15T06:21:06.603Z,0.00
2024-01-15T06:22:06.683Z,0.00
2024-01-15T06:23:06.631Z,0.00
2024-01-15T06:24:06.636Z,0.00
2024-01-15T06:25:06.697Z,0.00
2024-01-15T06:26:06.668Z,0.00
2024-01-15T06:27:06.687Z,0.00
2024-01-15T06:28:06.680Z,0.00
2024-01-15T06:29:06.683Z,0.00
2024-01-15T06:30:06.818Z,0.00
2024-01-15T06:31:06.781Z,0.00
2024-01-15T06:32:06.725Z,0.00
2024-01-15T06:33:06.826Z,0.00
2024-01-15T06:34:06.914Z,0.00
2024-01-15T06:35:06.739Z,0.00
2024-01-15T06:36:06.752Z,0.00
2024-01-15T06:37:06.799Z,0.00
2024-01-15T06:38:06.773Z,0.00
2024-01-15T06:39:06.809Z,0.00
2024-01-15T06:40:06.791Z,0.00
2024-01-15T06:41:06.801Z,0.00
2024-01-15T06:42:06.825Z,0.00
2024-01-15T06:43:06.870Z,0.00
2024-01-15T06:44:06.844Z,0.00
2024-01-15T06:45:06.848Z,0.00
2024-01-15T06:46:08.108Z,0.00
2024-01-15T06:47:06.898Z,0.00
2024-01-15T06:48:06.897Z,0.00
2024-01-15T06:49:06.960Z,0.00
2024-01-15T06:50:06.918Z,0.00
2024-01-15T06:51:06.900Z,0.00
2024-01-15T06:52:06.966Z,0.00
2024-01-15T06:53:06.937Z,0.00
2024-01-15T06:54:06.925Z,0.00
2024-01-15T06:55:06.974Z,0.00
2024-01-15T06:56:06.938Z,0.00
2024-01-15T06:57:06.948Z,0.00
2024-01-15T06:58:06.956Z,0.00
2024-01-15T06:59:06.970Z,0.00
2024-01-15T07:00:07.002Z,0.00
2024-01-15T07:01:07.104Z,0.00
2024-01-15T07:02:07.123Z,0.00
2024-01-15T07:03:07.037Z,0.00
2024-01-15T07:04:07.161Z,4.00
2024-01-15T07:05:07.113Z,0.00
2024-01-15T07:06:07.102Z,4.00
2024-01-15T07:07:07.054Z,0.00
2024-01-15T07:08:07.058Z,4.00
2024-01-15T07:09:07.070Z,4.00
2024-01-15T07:10:07.071Z,4.00
2024-01-15T07:11:07.115Z,4.00
2024-01-15T07:12:07.132Z,8.00
2024-01-15T07:13:07.106Z,8.00
2024-01-15T07:14:07.116Z,4.00
2024-01-15T07:15:07.117Z,8.00
2024-01-15T07:16:07.174Z,8.00
2024-01-15T07:17:07.185Z,8.00
2024-01-15T07:18:07.183Z,12.00
2024-01-15T07:19:07.217Z,12.00
2024-01-15T07:20:07.247Z,16.00
2024-01-15T07:21:07.174Z,16.00
2024-01-15T07:22:07.254Z,16.00
2024-01-15T07:23:07.224Z,20.00
2024-01-15T07:24:07.212Z,20.00
2024-01-15T07:25:07.250Z,20.00
2024-01-15T07:26:07.220Z,28.00
2024-01-15T07:27:07.263Z,28.00
2024-01-15T07:28:07.243Z,36.00
2024-01-15T07:29:07.257Z,40.00
2024-01-15T07:30:07.282Z,44.00
2024-01-15T07:31:07.344Z,52.00
2024-01-15T07:32:07.278Z,60.00
2024-01-15T07:33:07.383Z,64.00
2024-01-15T07:34:07.390Z,80.00
2024-01-15T07:35:07.337Z,92.00
2024-01-15T07:36:07.340Z,96.00
2024-01-15T07:37:07.327Z,96.00
2024-01-15T07:38:07.355Z,112.00
2024-01-15T07:39:07.345Z,124.00
2024-01-15T07:40:07.435Z,124.00
2024-01-15T07:41:07.404Z,124.00
2024-01-15T07:42:07.369Z,120.00
2024-01-15T07:43:07.395Z,108.00
2024-01-15T07:44:07.468Z,92.00
2024-01-15T07:45:07.423Z,100.00
2024-01-15T07:46:07.477Z,104.00
2024-01-15T07:47:07.435Z,108.00
2024-01-15T07:48:07.500Z,116.00
2024-01-15T07:49:07.523Z,116.00
2024-01-15T07:50:07.914Z,124.00
2024-01-15T07:51:07.510Z,140.00
2024-01-15T07:52:07.480Z,144.00
2024-01-15T07:53:07.485Z,140.00
2024-01-15T07:54:07.495Z,140.00
2024-01-15T07:55:07.549Z,152.00
2024-01-15T07:56:07.524Z,144.00
2024-01-15T07:57:07.616Z,144.00
2024-01-15T07:58:15.792Z,140.00
2024-01-15T07:59:07.568Z,156.00
2024-01-15T08:00:07.678Z,160.00
2024-01-15T08:01:07.931Z,168.00
2024-01-15T08:02:07.581Z,180.00
2024-01-15T08:03:07.627Z,180.00
2024-01-15T08:04:07.688Z,180.00
2024-01-15T08:05:07.650Z,192.00
2024-01-15T08:06:07.754Z,200.00
2024-01-15T08:07:07.640Z,208.00
2024-01-15T08:08:07.626Z,216.00
2024-01-15T08:09:07.708Z,228.00
2024-01-15T08:10:07.667Z,268.00
2024-01-15T08:11:07.667Z,284.00
2024-01-15T08:12:07.737Z,320.00
2024-01-15T08:13:07.665Z,348.00
2024-01-15T08:14:07.726Z,396.00
2024-01-15T08:15:07.688Z,432.00
2024-01-15T08:16:07.824Z,456.00
2024-01-15T08:17:07.697Z,420.00
2024-01-15T08:18:07.853Z,424.00
2024-01-15T08:19:07.841Z,436.00
2024-01-15T08:20:07.867Z,452.00
2024-01-15T08:21:07.735Z,516.00
2024-01-15T08:22:07.782Z,588.00
2024-01-15T08:23:07.794Z,720.00
2024-01-15T08:24:07.804Z,712.00
2024-01-15T08:25:07.786Z,716.00
2024-01-15T08:26:07.822Z,720.00
2024-01-15T08:27:07.794Z,680.00
2024-01-15T08:28:07.801Z,656.00
2024-01-15T08:29:07.816Z,548.00
2024-01-15T08:30:07.904Z,540.00
2024-01-15T08:31:07.997Z,536.00
2024-01-15T08:32:07.910Z,520.00
2024-01-15T08:33:11.641Z,480.00
2024-01-15T08:34:07.997Z,484.00
2024-01-15T08:35:07.921Z,456.00
2024-01-15T08:36:07.884Z,400.00
2024-01-15T08:37:07.934Z,392.00
2024-01-15T08:38:07.919Z,412.00
2024-01-15T08:39:07.922Z,428.00
2024-01-15T08:40:07.988Z,480.00
2024-01-15T08:41:07.931Z,520.00
2024-01-15T08:42:07.961Z,480.00
2024-01-15T08:43:08.001Z,440.00
2024-01-15T08:44:07.962Z,412.00
2024-01-15T08:45:07.985Z,400.00
2024-01-15T08:46:08.110Z,436.00
2024-01-15T08:47:08.288Z,496.00
2024-01-15T08:48:08.073Z,520.00
2024-01-15T08:49:08.074Z,540.00
2024-01-15T08:50:08.021Z,568.00
2024-01-15T08:51:08.026Z,588.00
2024-01-15T08:52:08.047Z,588.00
2024-01-15T08:53:08.080Z,592.00
2024-01-15T08:54:08.049Z,528.00
2024-01-15T08:55:08.066Z,476.00
2024-01-15T08:56:08.104Z,468.00
2024-01-15T08:57:08.141Z,472.00
2024-01-15T08:58:08.128Z,560.00
2024-01-15T08:59:08.117Z,636.00
2024-01-15T09:00:08.113Z,684.00
2024-01-15T09:01:08.241Z,672.00
2024-01-15T09:02:08.167Z,632.00
2024-01-15T09:03:08.157Z,568.00
2024-01-15T09:04:08.273Z,504.00
2024-01-15T09:05:08.381Z,384.00
2024-01-15T09:06:08.196Z,340.00
2024-01-15T09:07:08.207Z,332.00
2024-01-15T09:08:08.217Z,336.00
2024-01-15T09:09:08.195Z,356.00
2024-01-15T09:10:08.198Z,376.00
2024-01-15T09:11:08.243Z,368.00
2024-01-15T09:12:08.222Z,328.00
2024-01-15T09:13:08.239Z,288.00
2024-01-15T09:14:08.244Z,248.00
2024-01-15T09:15:08.259Z,220.00
2024-01-15T09:16:08.474Z,228.00
2024-01-15T09:17:08.558Z,260.00
2024-01-15T09:18:08.945Z,288.00
2024-01-15T09:19:08.385Z,292.00
2024-01-15T09:20:08.375Z,276.00
2024-01-15T09:21:08.341Z,336.00
2024-01-15T09:22:08.313Z,312.00
2024-01-15T09:23:08.338Z,348.00
2024-01-15T09:24:08.358Z,412.00
2024-01-15T09:25:08.469Z,612.00
2024-01-15T09:26:08.503Z,988.00
2024-01-15T09:27:08.441Z,1448.00
2024-01-15T09:28:08.515Z,1700.00
2024-01-15T09:29:08.470Z,1520.00
2024-01-15T09:30:08.573Z,1000.00
2024-01-15T09:31:08.622Z,712.00
2024-01-15T09:32:08.469Z,484.00
2024-01-15T09:33:08.572Z,392.00
2024-01-15T09:34:08.552Z,400.00
2024-01-15T09:35:08.548Z,512.00
2024-01-15T09:36:08.576Z,512.00
2024-01-15T09:37:08.573Z,668.00
2024-01-15T09:38:08.541Z,820.00
2024-01-15T09:39:08.580Z,920.00
2024-01-15T09:40:08.604Z,1212.00
2024-01-15T09:41:08.651Z,1400.00
2024-01-15T09:42:08.598Z,1496.00
2024-01-15T09:43:08.579Z,1420.00
2024-01-15T09:44:08.534Z,1344.00
2024-01-15T09:45:08.553Z,1016.00
2024-01-15T09:46:08.600Z,728.00
2024-01-15T09:47:08.564Z,820.00
2024-01-15T09:48:08.617Z,856.00
2024-01-15T09:49:08.718Z,1080.00
2024-01-15T09:50:08.780Z,1072.00
2024-01-15T09:51:08.652Z,1076.00
2024-01-15T09:52:11.971Z,908.00
2024-01-15T09:53:08.627Z,816.00
2024-01-15T09:54:08.650Z,648.00
2024-01-15T09:55:08.698Z,564.00
2024-01-15T09:56:08.675Z,648.00
2024-01-15T09:57:08.661Z,768.00
2024-01-15T09:58:08.698Z,820.00
2024-01-15T09:59:08.675Z,944.00
2024-01-15T10:00:08.714Z,1028.00
2024-01-15T10:01:08.988Z,920.00
2024-01-15T10:02:08.727Z,904.00
2024-01-15T10:03:08.722Z,928.00
2024-01-15T10:04:08.880Z,744.00
2024-01-15T10:05:08.758Z,956.00
2024-01-15T10:06:08.823Z,892.00
2024-01-15T10:07:09.175Z,952.00
2024-01-15T10:08:08.767Z,1044.00
2024-01-15T10:09:08.798Z,1216.00
2024-01-15T10:10:08.882Z,1260.00
2024-01-15T10:11:08.803Z,1212.00
2024-01-15T10:12:08.804Z,1164.00
2024-01-15T10:13:08.824Z,1320.00
2024-01-15T10:14:08.826Z,1248.00
2024-01-15T10:15:08.842Z,1124.00
2024-01-15T10:16:08.852Z,1400.00
2024-01-15T10:17:08.864Z,1432.00
2024-01-15T10:18:09.011Z,1348.00
2024-01-15T10:19:09.058Z,1292.00
2024-01-15T10:20:08.902Z,1716.00
2024-01-15T10:21:08.896Z,1176.00
2024-01-15T10:22:08.907Z,872.00
2024-01-15T10:23:08.948Z,752.00
2024-01-15T10:24:08.928Z,1016.00
2024-01-15T10:25:08.937Z,1576.00
2024-01-15T10:26:08.947Z,1656.00
2024-01-15T10:27:08.967Z,1540.00
2024-01-15T10:28:08.965Z,1476.00
2024-01-15T10:29:09.002Z,1184.00
2024-01-15T10:30:09.048Z,960.00
2024-01-15T10:31:09.039Z,812.00
2024-01-15T10:32:09.055Z,776.00
2024-01-15T10:33:09.155Z,1060.00
2024-01-15T10:34:09.090Z,1248.00
2024-01-15T10:35:09.049Z,1476.00
2024-01-15T10:36:09.046Z,1752.00
2024-01-15T10:37:09.055Z,2032.00
2024-01-15T10:38:09.115Z,2248.00
2024-01-15T10:39:09.113Z,1364.00
2024-01-15T10:40:09.172Z,848.00
2024-01-15T10:41:09.119Z,772.00
2024-01-15T10:42:09.142Z,900.00
2024-01-15T10:43:09.118Z,1024.00
2024-01-15T10:44:09.174Z,1044.00
2024-01-15T10:45:09.167Z,1128.00
2024-01-15T10:46:09.233Z,968.00
2024-01-15T10:47:09.198Z,944.00
2024-01-15T10:48:09.371Z,1060.00
2024-01-15T10:49:09.299Z,1308.00
2024-01-15T10:50:09.182Z,1516.00
2024-01-15T10:51:09.230Z,1436.00
2024-01-15T10:52:09.225Z,1412.00
2024-01-15T10:53:09.251Z,1488.00
2024-01-15T10:54:09.243Z,1440.00
2024-01-15T10:55:16.097Z,1228.00
2024-01-15T10:56:09.243Z,912.00
2024-01-15T10:57:09.733Z,972.00
2024-01-15T10:58:09.269Z,1012.00
2024-01-15T10:59:09.281Z,980.00
2024-01-15T11:00:09.281Z,960.00
2024-01-15T11:01:09.404Z,1076.00
2024-01-15T11:02:10.203Z,1336.00
2024-01-15T11:03:09.397Z,1352.00
2024-01-15T11:04:09.431Z,1564.00
2024-01-15T11:05:09.343Z,1164.00
2024-01-15T11:06:09.443Z,880.00
2024-01-15T11:07:09.421Z,924.00
2024-01-15T11:08:09.365Z,980.00
2024-01-15T11:09:09.386Z,808.00
2024-01-15T11:10:09.401Z,816.00
2024-01-15T11:11:09.450Z,916.00
2024-01-15T11:12:09.406Z,820.00
2024-01-15T11:13:09.438Z,992.00
2024-01-15T11:14:09.427Z,992.00
2024-01-15T11:15:09.435Z,1076.00
2024-01-15T11:16:09.456Z,1016.00
2024-01-15T11:17:09.454Z,1080.00
2024-01-15T11:18:09.837Z,1344.00
2024-01-15T11:19:09.714Z,1716.00
2024-01-15T11:20:09.501Z,1992.00
2024-01-15T11:21:09.549Z,2184.00
2024-01-15T11:22:09.504Z,1988.00
2024-01-15T11:23:09.525Z,2188.00
2024-01-15T11:24:09.536Z,2360.00
2024-01-15T11:25:09.539Z,2180.00
2024-01-15T11:26:09.710Z,1820.00
2024-01-15T11:27:09.570Z,1548.00
2024-01-15T11:28:09.571Z,1440.00
2024-01-15T11:29:09.706Z,1596.00
2024-01-15T11:30:09.604Z,1916.00
2024-01-15T11:31:09.720Z,2324.00
2024-01-15T11:32:09.794Z,2496.00
2024-01-15T11:33:09.739Z,2964.00
2024-01-15T11:34:09.747Z,2328.00
2024-01-15T11:35:09.671Z,2004.00
2024-01-15T11:36:09.724Z,2240.00
2024-01-15T11:37:09.694Z,2308.00
2024-01-15T11:38:09.699Z,2440.00
2024-01-15T11:39:09.720Z,1856.00
2024-01-15T11:40:09.820Z,1656.00
2024-01-15T11:41:09.706Z,2352.00
2024-01-15T11:42:09.729Z,3048.00
2024-01-15T11:43:09.848Z,2828.00
2024-01-15T11:44:09.796Z,2684.00
2024-01-15T11:45:09.781Z,2288.00
2024-01-15T11:46:09.851Z,2360.00
2024-01-15T11:47:11.539Z,2892.00
2024-01-15T11:48:09.859Z,2060.00
2024-01-15T11:49:10.018Z,1500.00
2024-01-15T11:50:09.946Z,1364.00
2024-01-15T11:51:09.821Z,1248.00
2024-01-15T11:52:09.876Z,1240.00
2024-01-15T11:53:09.826Z,1424.00
2024-01-15T11:54:09.842Z,1524.00
2024-01-15T11:55:09.862Z,1224.00
2024-01-15T11:56:09.885Z,1228.00
2024-01-15T11:57:09.916Z,1348.00
2024-01-15T11:58:09.905Z,1208.00
2024-01-15T11:59:09.930Z,1036.00
2024-01-15T12:00:09.922Z,1096.00
2024-01-15T12:01:10.061Z,1132.00
2024-01-15T12:02:09.942Z,1212.00
2024-01-15T12:03:09.941Z,1188.00
2024-01-15T12:04:10.178Z,1316.00
2024-01-15T12:05:10.029Z,1336.00
2024-01-15T12:06:10.103Z,928.00
2024-01-15T12:07:10.113Z,904.00
2024-01-15T12:08:10.026Z,1012.00
2024-01-15T12:09:09.991Z,888.00
2024-01-15T12:10:10.018Z,860.00
2024-01-15T12:11:10.025Z,852.00
2024-01-15T12:12:10.078Z,816.00
2024-01-15T12:13:10.077Z,856.00
2024-01-15T12:14:10.070Z,808.00
2024-01-15T12:15:10.065Z,872.00
2024-01-15T12:16:10.190Z,960.00
2024-01-15T12:17:10.072Z,1136.00
2024-01-15T12:18:10.237Z,1212.00
2024-01-15T12:19:10.281Z,1172.00
2024-01-15T12:20:10.104Z,1060.00
2024-01-15T12:21:10.111Z,972.00
2024-01-15T12:22:10.189Z,948.00
2024-01-15T12:23:10.605Z,1044.00
2024-01-15T12:24:10.220Z,904.00
2024-01-15T12:25:10.289Z,820.00
2024-01-15T12:26:10.184Z,984.00
2024-01-15T12:27:10.183Z,1480.00
2024-01-15T12:28:10.526Z,1836.00
2024-01-15T12:29:10.348Z,2012.00
2024-01-15T12:30:10.225Z,2444.00
2024-01-15T12:31:10.338Z,2528.00
2024-01-15T12:32:10.510Z,2572.00
2024-01-15T12:33:10.939Z,2352.00
2024-01-15T12:34:10.334Z,2204.00
2024-01-15T12:35:10.258Z,2152.00
2024-01-15T12:36:10.314Z,2380.00
2024-01-15T12:37:10.286Z,2752.00
2024-01-15T12:38:10.297Z,2704.00
2024-01-15T12:39:10.296Z,2204.00
2024-01-15T12:40:10.328Z,2428.00
2024-01-15T12:41:10.358Z,1980.00
2024-01-15T12:42:10.345Z,1768.00
2024-01-15T12:43:10.363Z,1568.00
2024-01-15T12:44:10.381Z,1308.00
2024-01-15T12:45:10.370Z,1064.00
2024-01-15T12:46:10.432Z,1068.00
2024-01-15T12:47:10.417Z,960.00
2024-01-15T12:48:10.494Z,884.00
2024-01-15T12:49:10.495Z,848.00
2024-01-15T12:50:16.517Z,864.00
2024-01-15T12:51:10.464Z,848.00
2024-01-15T12:52:10.577Z,1144.00